sensor_id;sensor_type;location;lat;lon;timestamp;P1;durP1;ratioP1;P2;durP2;ratioP2
17197;SDS011;8715;51.010;6.812;2023-08-21T00:02:39;951.88;;;877.15;;
17197;SDS011;8715;51.010;6.812;2023-08-21T00:05:25;949.05;;;874.50;;
17197;SDS011;8715;51.010;6.812;2023-08-21T00:08:11;949.05;;;874.67;;
17197;SDS011;8715;51.010;6.812;2023-08-21T00:10:56;950.78;;;876.35;;
17197;SDS011;8715;51.010;6.812;2023-08-21T00:13:41;950.60;;;875.90;;
17197;SDS011;8715;51.010;6.812;2023-08-21T00:16:28;952.83;;;877.63;;
17197;SDS011;8715;51.010;6.812;2023-08-21T00:19:13;946.80;;;872.70;;
17197;SDS011;8715;51.010;6.812;2023-08-21T00:22:00;948.08;;;873.78;;
17197;SDS011;8715;51.010;6.812;2023-08-21T00:24:45;948.53;;;874.05;;
17197;SDS011;8715;51.010;6.812;2023-08-21T00:27:30;950.45;;;876.50;;
17197;SDS011;8715;51.010;6.812;2023-08-21T00:30:16;947.75;;;873.67;;
17197;SDS011;8715;51.010;6.812;2023-08-21T00:33:01;945.15;;;871.72;;
17197;SDS011;8715;51.010;6.812;2023-08-21T00:35:46;947.67;;;873.92;;
17197;SDS011;8715;51.010;6.812;2023-08-21T00:38:33;945.58;;;872.22;;
17197;SDS011;8715;51.010;6.812;2023-08-21T00:41:18;944.88;;;871.78;;
17197;SDS011;8715;51.010;6.812;2023-08-21T00:44:03;941.95;;;868.67;;
17197;SDS011;8715;51.010;6.812;2023-08-21T00:46:49;946.72;;;873.83;;
17197;SDS011;8715;51.010;6.812;2023-08-21T00:49:34;944.45;;;871.53;;
17197;SDS011;8715;51.010;6.812;2023-08-21T00:52:20;943.63;;;870.75;;
17197;SDS011;8715;51.010;6.812;2023-08-21T00:55:07;942.55;;;869.38;;
17197;SDS011;8715;51.010;6.812;2023-08-21T00:57:53;944.42;;;871.70;;
17197;SDS011;8715;51.010;6.812;2023-08-21T01:00:38;945.13;;;872.03;;
17197;SDS011;8715;51.010;6.812;2023-08-21T01:03:24;941.65;;;869.05;;
17197;SDS011;8715;51.010;6.812;2023-08-21T01:06:09;940.05;;;867.78;;
17197;SDS011;8715;51.010;6.812;2023-08-21T01:08:56;941.88;;;869.50;;
17197;SDS011;8715;51.010;6.812;2023-08-21T01:11:46;946.55;;;873.85;;
17197;SDS011;8715;51.010;6.812;2023-08-21T01:14:36;941.65;;;869.33;;
17197;SDS011;8715;51.010;6.812;2023-08-21T01:17:26;943.70;;;871.15;;
17197;SDS011;8715;51.010;6.812;2023-08-21T01:20:13;942.55;;;870.00;;
17197;SDS011;8715;51.010;6.812;2023-08-21T01:23:02;943.53;;;870.90;;
17197;SDS011;8715;51.010;6.812;2023-08-21T01:25:50;942.65;;;870.33;;
17197;SDS011;8715;51.010;6.812;2023-08-21T01:28:35;943.55;;;871.13;;
17197;SDS011;8715;51.010;6.812;2023-08-21T01:31:21;943.78;;;871.22;;
17197;SDS011;8715;51.010;6.812;2023-08-21T01:34:09;944.15;;;871.08;;
17197;SDS011;8715;51.010;6.812;2023-08-21T01:36:56;944.63;;;871.72;;
17197;SDS011;8715;51.010;6.812;2023-08-21T01:39:41;947.45;;;874.67;;
17197;SDS011;8715;51.010;6.812;2023-08-21T01:42:28;942.05;;;869.13;;
17197;SDS011;8715;51.010;6.812;2023-08-21T01:45:13;945.80;;;872.83;;
17197;SDS011;8715;51.010;6.812;2023-08-21T01:47:58;942.92;;;870.33;;
17197;SDS011;8715;51.010;6.812;2023-08-21T01:50:44;942.67;;;870.40;;
17197;SDS011;8715;51.010;6.812;2023-08-21T01:53:29;941.00;;;868.47;;
17197;SDS011;8715;51.010;6.812;2023-08-21T01:56:15;939.72;;;867.47;;
17197;SDS011;8715;51.010;6.812;2023-08-21T01:59:01;942.17;;;870.00;;
17197;SDS011;8715;51.010;6.812;2023-08-21T02:01:47;941.67;;;869.55;;
17197;SDS011;8715;51.010;6.812;2023-08-21T02:04:32;940.83;;;868.97;;
17197;SDS011;8715;51.010;6.812;2023-08-21T02:07:17;942.05;;;869.67;;
17197;SDS011;8715;51.010;6.812;2023-08-21T02:10:03;940.58;;;868.55;;
17197;SDS011;8715;51.010;6.812;2023-08-21T02:12:49;941.47;;;869.30;;
17197;SDS011;8715;51.010;6.812;2023-08-21T02:15:36;940.88;;;869.17;;
17197;SDS011;8715;51.010;6.812;2023-08-21T02:18:23;940.25;;;868.70;;
17197;SDS011;8715;51.010;6.812;2023-08-21T02:21:08;941.22;;;869.90;;
17197;SDS011;8715;51.010;6.812;2023-08-21T02:23:53;936.20;;;864.72;;
17197;SDS011;8715;51.010;6.812;2023-08-21T02:26:39;940.17;;;868.60;;
17197;SDS011;8715;51.010;6.812;2023-08-21T02:29:24;940.60;;;869.03;;
17197;SDS011;8715;51.010;6.812;2023-08-21T02:32:11;938.17;;;866.60;;
17197;SDS011;8715;51.010;6.812;2023-08-21T02:34:56;938.40;;;866.92;;
17197;SDS011;8715;51.010;6.812;2023-08-21T02:37:41;938.10;;;867.00;;
17197;SDS011;8715;51.010;6.812;2023-08-21T02:40:27;939.20;;;867.70;;
17197;SDS011;8715;51.010;6.812;2023-08-21T02:43:12;936.55;;;865.38;;
17197;SDS011;8715;51.010;6.812;2023-08-21T02:45:57;939.83;;;868.72;;
17197;SDS011;8715;51.010;6.812;2023-08-21T02:48:44;936.45;;;865.58;;
17197;SDS011;8715;51.010;6.812;2023-08-21T02:51:29;943.17;;;871.60;;
17197;SDS011;8715;51.010;6.812;2023-08-21T02:54:14;936.08;;;865.47;;
17197;SDS011;8715;51.010;6.812;2023-08-21T02:56:59;934.47;;;863.92;;
17197;SDS011;8715;51.010;6.812;2023-08-21T02:59:45;935.88;;;864.92;;
17197;SDS011;8715;51.010;6.812;2023-08-21T03:02:30;939.25;;;868.03;;
17197;SDS011;8715;51.010;6.812;2023-08-21T03:05:17;937.25;;;866.63;;
17197;SDS011;8715;51.010;6.812;2023-08-21T03:08:03;939.45;;;867.88;;
17197;SDS011;8715;51.010;6.812;2023-08-21T03:10:48;937.70;;;866.47;;
17197;SDS011;8715;51.010;6.812;2023-08-21T03:13:33;935.03;;;864.10;;
17197;SDS011;8715;51.010;6.812;2023-08-21T03:16:19;936.30;;;865.67;;
17197;SDS011;8715;51.010;6.812;2023-08-21T03:19:04;935.97;;;865.25;;
17197;SDS011;8715;51.010;6.812;2023-08-21T03:21:51;935.75;;;864.67;;
17197;SDS011;8715;51.010;6.812;2023-08-21T03:24:36;940.60;;;869.45;;
17197;SDS011;8715;51.010;6.812;2023-08-21T03:27:21;935.83;;;865.03;;
17197;SDS011;8715;51.010;6.812;2023-08-21T03:30:07;935.13;;;864.15;;
17197;SDS011;8715;51.010;6.812;2023-08-21T03:32:52;936.33;;;865.45;;
17197;SDS011;8715;51.010;6.812;2023-08-21T03:35:37;936.25;;;865.25;;
17197;SDS011;8715;51.010;6.812;2023-08-21T03:38:24;937.45;;;866.40;;
17197;SDS011;8715;51.010;6.812;2023-08-21T03:41:09;937.53;;;866.47;;
17197;SDS011;8715;51.010;6.812;2023-08-21T03:43:55;934.35;;;863.88;;
17197;SDS011;8715;51.010;6.812;2023-08-21T03:46:41;938.08;;;867.35;;
17197;SDS011;8715;51.010;6.812;2023-08-21T03:49:26;935.10;;;864.00;;
17197;SDS011;8715;51.010;6.812;2023-08-21T03:52:11;936.70;;;865.70;;
17197;SDS011;8715;51.010;6.812;2023-08-21T03:54:58;937.22;;;866.38;;
17197;SDS011;8715;51.010;6.812;2023-08-21T03:57:43;937.05;;;865.75;;
17197;SDS011;8715;51.010;6.812;2023-08-21T04:00:28;936.30;;;865.47;;
17197;SDS011;8715;51.010;6.812;2023-08-21T04:03:14;938.20;;;867.28;;
17197;SDS011;8715;51.010;6.812;2023-08-21T04:06:01;939.45;;;868.08;;
17197;SDS011;8715;51.010;6.812;2023-08-21T04:08:46;936.80;;;865.50;;
17197;SDS011;8715;51.010;6.812;2023-08-21T04:11:32;935.60;;;864.67;;
17197;SDS011;8715;51.010;6.812;2023-08-21T04:14:18;938.25;;;866.75;;
17197;SDS011;8715;51.010;6.812;2023-08-21T04:17:03;938.40;;;867.40;;
17197;SDS011;8715;51.010;6.812;2023-08-21T04:19:49;941.38;;;870.15;;
17197;SDS011;8715;51.010;6.812;2023-08-21T04:22:34;937.75;;;866.60;;
17197;SDS011;8715;51.010;6.812;2023-08-21T04:25:19;936.47;;;865.67;;
17197;SDS011;8715;51.010;6.812;2023-08-21T04:28:06;938.22;;;867.00;;
17197;SDS011;8715;51.010;6.812;2023-08-21T04:30:52;940.42;;;868.88;;
17197;SDS011;8715;51.010;6.812;2023-08-21T04:33:37;934.85;;;864.22;;
17197;SDS011;8715;51.010;6.812;2023-08-21T04:36:23;938.00;;;866.85;;
17197;SDS011;8715;51.010;6.812;2023-08-21T04:39:09;936.72;;;865.55;;
17197;SDS011;8715;51.010;6.812;2023-08-21T04:41:54;939.30;;;868.20;;
17197;SDS011;8715;51.010;6.812;2023-08-21T04:44:41;934.90;;;864.28;;
17197;SDS011;8715;51.010;6.812;2023-08-21T04:47:26;934.97;;;864.22;;
17197;SDS011;8715;51.010;6.812;2023-08-21T04:50:12;937.50;;;866.25;;
17197;SDS011;8715;51.010;6.812;2023-08-21T04:52:59;938.03;;;867.03;;
17197;SDS011;8715;51.010;6.812;2023-08-21T04:55:44;938.50;;;866.85;;
17197;SDS011;8715;51.010;6.812;2023-08-21T04:58:29;941.72;;;870.03;;
17197;SDS011;8715;51.010;6.812;2023-08-21T05:01:16;937.40;;;866.50;;
17197;SDS011;8715;51.010;6.812;2023-08-21T05:04:02;939.38;;;867.65;;
17197;SDS011;8715;51.010;6.812;2023-08-21T05:06:47;939.35;;;867.92;;
17197;SDS011;8715;51.010;6.812;2023-08-21T05:09:32;937.28;;;865.90;;
17197;SDS011;8715;51.010;6.812;2023-08-21T05:12:18;940.03;;;868.50;;
17197;SDS011;8715;51.010;6.812;2023-08-21T05:15:03;940.33;;;868.97;;
17197;SDS011;8715;51.010;6.812;2023-08-21T05:17:50;940.55;;;869.20;;
17197;SDS011;8715;51.010;6.812;2023-08-21T05:20:35;939.78;;;867.72;;
17197;SDS011;8715;51.010;6.812;2023-08-21T05:23:21;939.45;;;868.08;;
17197;SDS011;8715;51.010;6.812;2023-08-21T05:26:06;938.35;;;866.67;;
17197;SDS011;8715;51.010;6.812;2023-08-21T05:28:51;939.13;;;867.40;;
17197;SDS011;8715;51.010;6.812;2023-08-21T05:31:36;947.22;;;874.35;;
17197;SDS011;8715;51.010;6.812;2023-08-21T05:34:23;950.28;;;875.35;;
17197;SDS011;8715;51.010;6.812;2023-08-21T05:37:09;960.53;;;883.15;;
17197;SDS011;8715;51.010;6.812;2023-08-21T05:39:54;961.20;;;882.38;;
17197;SDS011;8715;51.010;6.812;2023-08-21T05:42:39;974.03;;;892.55;;
17197;SDS011;8715;51.010;6.812;2023-08-21T05:45:25;974.53;;;891.53;;
17197;SDS011;8715;51.010;6.812;2023-08-21T05:48:10;979.03;;;894.75;;
17197;SDS011;8715;51.010;6.812;2023-08-21T05:50:57;983.50;;;898.53;;
17197;SDS011;8715;51.010;6.812;2023-08-21T05:53:42;983.55;;;898.38;;
17197;SDS011;8715;51.010;6.812;2023-08-21T05:56:27;981.13;;;896.45;;
17197;SDS011;8715;51.010;6.812;2023-08-21T05:59:13;979.47;;;894.53;;
17197;SDS011;8715;51.010;6.812;2023-08-21T06:02:11;977.03;;;892.72;;
17197;SDS011;8715;51.010;6.812;2023-08-21T06:04:57;977.25;;;893.65;;
17197;SDS011;8715;51.010;6.812;2023-08-21T06:07:44;973.78;;;891.25;;
17197;SDS011;8715;51.010;6.812;2023-08-21T06:10:30;969.00;;;887.97;;
17197;SDS011;8715;51.010;6.812;2023-08-21T06:13:15;963.38;;;883.80;;
17197;SDS011;8715;51.010;6.812;2023-08-21T06:16:01;961.78;;;882.58;;
17197;SDS011;8715;51.010;6.812;2023-08-21T06:18:46;971.03;;;889.67;;
17197;SDS011;8715;51.010;6.812;2023-08-21T06:21:31;974.88;;;891.85;;
17197;SDS011;8715;51.010;6.812;2023-08-21T06:24:18;976.75;;;892.05;;
17197;SDS011;8715;51.010;6.812;2023-08-21T06:27:03;984.85;;;898.13;;
17197;SDS011;8715;51.010;6.812;2023-08-21T06:29:48;987.47;;;899.38;;
17197;SDS011;8715;51.010;6.812;2023-08-21T06:32:34;989.47;;;900.35;;
17197;SDS011;8715;51.010;6.812;2023-08-21T06:35:19;989.90;;;900.97;;
17197;SDS011;8715;51.010;6.812;2023-08-21T06:38:05;987.78;;;899.05;;
17197;SDS011;8715;51.010;6.812;2023-08-21T06:40:51;987.75;;;900.17;;
17197;SDS011;8715;51.010;6.812;2023-08-21T06:43:37;984.38;;;897.42;;
17197;SDS011;8715;51.010;6.812;2023-08-21T06:46:22;984.30;;;897.78;;
17197;SDS011;8715;51.010;6.812;2023-08-21T06:49:07;982.25;;;896.25;;
17197;SDS011;8715;51.010;6.812;2023-08-21T06:51:53;981.55;;;896.15;;
17197;SDS011;8715;51.010;6.812;2023-08-21T06:54:38;980.85;;;896.25;;
17197;SDS011;8715;51.010;6.812;2023-08-21T06:57:25;980.45;;;896.28;;
17197;SDS011;8715;51.010;6.812;2023-08-21T07:00:10;976.38;;;892.47;;
17197;SDS011;8715;51.010;6.812;2023-08-21T07:02:56;980.65;;;896.33;;
17197;SDS011;8715;51.010;6.812;2023-08-21T07:05:45;975.40;;;891.88;;
17197;SDS011;8715;51.010;6.812;2023-08-21T07:08:31;975.88;;;892.17;;
17197;SDS011;8715;51.010;6.812;2023-08-21T07:11:17;981.50;;;897.42;;
17197;SDS011;8715;51.010;6.812;2023-08-21T07:14:03;977.33;;;893.60;;
17197;SDS011;8715;51.010;6.812;2023-08-21T07:16:49;980.05;;;895.80;;
17197;SDS011;8715;51.010;6.812;2023-08-21T07:19:34;978.70;;;894.45;;
17197;SDS011;8715;51.010;6.812;2023-08-21T07:22:20;976.70;;;893.03;;
17197;SDS011;8715;51.010;6.812;2023-08-21T07:25:05;980.45;;;896.38;;
17197;SDS011;8715;51.010;6.812;2023-08-21T07:27:51;981.13;;;896.97;;
17197;SDS011;8715;51.010;6.812;2023-08-21T07:30:38;978.95;;;895.10;;
17197;SDS011;8715;51.010;6.812;2023-08-21T07:33:23;974.05;;;890.42;;
17197;SDS011;8715;51.010;6.812;2023-08-21T07:36:08;977.40;;;893.58;;
17197;SDS011;8715;51.010;6.812;2023-08-21T07:38:58;976.08;;;892.92;;
17197;SDS011;8715;51.010;6.812;2023-08-21T07:41:44;976.22;;;892.53;;
17197;SDS011;8715;51.010;6.812;2023-08-21T07:44:29;976.50;;;893.40;;
17197;SDS011;8715;51.010;6.812;2023-08-21T07:47:16;974.08;;;890.90;;
17197;SDS011;8715;51.010;6.812;2023-08-21T07:50:01;972.58;;;889.80;;
17197;SDS011;8715;51.010;6.812;2023-08-21T07:52:47;973.25;;;890.55;;
17197;SDS011;8715;51.010;6.812;2023-08-21T07:55:32;970.65;;;888.58;;
17197;SDS011;8715;51.010;6.812;2023-08-21T07:58:18;972.88;;;890.47;;
17197;SDS011;8715;51.010;6.812;2023-08-21T08:01:03;971.10;;;889.22;;
17197;SDS011;8715;51.010;6.812;2023-08-21T08:03:50;975.03;;;892.35;;
17197;SDS011;8715;51.010;6.812;2023-08-21T08:06:36;971.45;;;889.70;;
17197;SDS011;8715;51.010;6.812;2023-08-21T08:09:21;974.38;;;891.97;;
17197;SDS011;8715;51.010;6.812;2023-08-21T08:12:07;970.70;;;888.50;;
17197;SDS011;8715;51.010;6.812;2023-08-21T08:14:52;973.22;;;890.40;;
17197;SDS011;8715;51.010;6.812;2023-08-21T08:17:38;976.40;;;893.42;;
17197;SDS011;8715;51.010;6.812;2023-08-21T08:20:24;977.58;;;893.85;;
17197;SDS011;8715;51.010;6.812;2023-08-21T08:23:10;976.85;;;893.17;;
17197;SDS011;8715;51.010;6.812;2023-08-21T08:25:55;974.25;;;890.67;;
17197;SDS011;8715;51.010;6.812;2023-08-21T08:28:40;976.33;;;893.05;;
17197;SDS011;8715;51.010;6.812;2023-08-21T08:31:26;976.25;;;893.00;;
17197;SDS011;8715;51.010;6.812;2023-08-21T08:34:12;974.03;;;891.60;;
17197;SDS011;8715;51.010;6.812;2023-08-21T08:36:58;973.50;;;890.38;;
17197;SDS011;8715;51.010;6.812;2023-08-21T08:39:45;974.22;;;890.97;;
17197;SDS011;8715;51.010;6.812;2023-08-21T08:45:16;970.97;;;888.60;;
17197;SDS011;8715;51.010;6.812;2023-08-21T08:48:07;973.92;;;891.20;;
17197;SDS011;8715;51.010;6.812;2023-08-21T08:50:52;973.08;;;890.42;;
17197;SDS011;8715;51.010;6.812;2023-08-21T08:53:39;973.50;;;891.03;;
17197;SDS011;8715;51.010;6.812;2023-08-21T08:56:24;974.03;;;891.50;;
17197;SDS011;8715;51.010;6.812;2023-08-21T08:59:09;971.88;;;889.40;;
17197;SDS011;8715;51.010;6.812;2023-08-21T09:01:55;977.58;;;894.58;;
17197;SDS011;8715;51.010;6.812;2023-08-21T09:04:40;978.30;;;894.85;;
17197;SDS011;8715;51.010;6.812;2023-08-21T09:07:25;973.72;;;890.28;;
17197;SDS011;8715;51.010;6.812;2023-08-21T09:10:15;974.85;;;891.72;;
17197;SDS011;8715;51.010;6.812;2023-08-21T09:13:01;974.97;;;891.45;;
17197;SDS011;8715;51.010;6.812;2023-08-21T09:15:47;977.78;;;894.30;;
17197;SDS011;8715;51.010;6.812;2023-08-21T09:18:33;979.47;;;895.22;;
17197;SDS011;8715;51.010;6.812;2023-08-21T09:21:19;976.22;;;892.38;;
17197;SDS011;8715;51.010;6.812;2023-08-21T09:24:05;977.78;;;893.65;;
17197;SDS011;8715;51.010;6.812;2023-08-21T09:26:51;976.72;;;892.97;;
17197;SDS011;8715;51.010;6.812;2023-08-21T09:29:37;977.40;;;893.70;;
17197;SDS011;8715;51.010;6.812;2023-08-21T09:32:24;978.67;;;894.40;;
17197;SDS011;8715;51.010;6.812;2023-08-21T09:35:13;981.75;;;896.95;;
17197;SDS011;8715;51.010;6.812;2023-08-21T09:37:58;979.85;;;895.53;;
17197;SDS011;8715;51.010;6.812;2023-08-21T09:40:49;979.85;;;895.10;;
17197;SDS011;8715;51.010;6.812;2023-08-21T09:43:40;979.83;;;895.42;;
17197;SDS011;8715;51.010;6.812;2023-08-21T09:46:27;981.25;;;896.65;;
17197;SDS011;8715;51.010;6.812;2023-08-21T09:49:12;981.35;;;896.30;;
17197;SDS011;8715;51.010;6.812;2023-08-21T09:51:57;983.15;;;897.28;;
17197;SDS011;8715;51.010;6.812;2023-08-21T09:54:44;979.50;;;894.22;;
17197;SDS011;8715;51.010;6.812;2023-08-21T09:57:29;979.65;;;894.08;;
17197;SDS011;8715;51.010;6.812;2023-08-21T10:00:16;982.55;;;896.45;;
17197;SDS011;8715;51.010;6.812;2023-08-21T10:03:04;983.58;;;897.25;;
17197;SDS011;8715;51.010;6.812;2023-08-21T10:05:51;989.13;;;902.50;;
17197;SDS011;8715;51.010;6.812;2023-08-21T10:08:37;985.17;;;898.72;;
17197;SDS011;8715;51.010;6.812;2023-08-21T10:11:24;984.03;;;897.30;;
17197;SDS011;8715;51.010;6.812;2023-08-21T10:14:09;984.58;;;898.25;;
17197;SDS011;8715;51.010;6.812;2023-08-21T10:16:56;986.53;;;899.60;;
17197;SDS011;8715;51.010;6.812;2023-08-21T10:19:41;982.72;;;896.58;;
17197;SDS011;8715;51.010;6.812;2023-08-21T10:25:33;984.35;;;898.03;;
17197;SDS011;8715;51.010;6.812;2023-08-21T10:28:40;986.33;;;899.30;;
17197;SDS011;8715;51.010;6.812;2023-08-21T10:31:31;983.25;;;896.95;;
17197;SDS011;8715;51.010;6.812;2023-08-21T10:34:18;987.25;;;900.53;;
17197;SDS011;8715;51.010;6.812;2023-08-21T10:37:08;987.13;;;900.60;;
17197;SDS011;8715;51.010;6.812;2023-08-21T10:39:56;988.05;;;901.38;;
17197;SDS011;8715;51.010;6.812;2023-08-21T10:42:42;985.50;;;898.78;;
17197;SDS011;8715;51.010;6.812;2023-08-21T10:45:27;983.03;;;896.97;;
17197;SDS011;8715;51.010;6.812;2023-08-21T10:48:12;988.58;;;901.58;;
17197;SDS011;8715;51.010;6.812;2023-08-21T10:50:59;983.92;;;897.88;;
17197;SDS011;8715;51.010;6.812;2023-08-21T10:53:46;986.05;;;899.65;;
17197;SDS011;8715;51.010;6.812;2023-08-21T10:56:32;982.25;;;896.55;;
17197;SDS011;8715;51.010;6.812;2023-08-21T10:59:17;985.33;;;898.85;;
17197;SDS011;8715;51.010;6.812;2023-08-21T11:02:03;987.47;;;900.70;;
17197;SDS011;8715;51.010;6.812;2023-08-21T11:04:48;986.90;;;899.97;;
17197;SDS011;8715;51.010;6.812;2023-08-21T11:07:37;987.05;;;900.38;;
17197;SDS011;8715;51.010;6.812;2023-08-21T11:10:24;988.42;;;901.22;;
17197;SDS011;8715;51.010;6.812;2023-08-21T11:13:09;983.00;;;896.20;;
17197;SDS011;8715;51.010;6.812;2023-08-21T11:15:58;985.53;;;898.63;;
17197;SDS011;8715;51.010;6.812;2023-08-21T11:18:43;983.10;;;896.17;;
17197;SDS011;8715;51.010;6.812;2023-08-21T11:21:29;987.28;;;899.80;;
17197;SDS011;8715;51.010;6.812;2023-08-21T11:24:16;991.20;;;902.90;;
17197;SDS011;8715;51.010;6.812;2023-08-21T11:27:01;986.10;;;898.13;;
17197;SDS011;8715;51.010;6.812;2023-08-21T11:29:49;987.85;;;899.83;;
17197;SDS011;8715;51.010;6.812;2023-08-21T11:32:35;988.65;;;900.42;;
17197;SDS011;8715;51.010;6.812;2023-08-21T11:35:20;986.28;;;898.60;;
17197;SDS011;8715;51.010;6.812;2023-08-21T11:38:05;987.60;;;900.03;;
17197;SDS011;8715;51.010;6.812;2023-08-21T11:40:53;990.03;;;902.42;;
17197;SDS011;8715;51.010;6.812;2023-08-21T11:43:40;987.30;;;899.30;;
17197;SDS011;8715;51.010;6.812;2023-08-21T11:46:27;989.63;;;901.38;;
17197;SDS011;8715;51.010;6.812;2023-08-21T11:49:12;989.00;;;900.40;;
17197;SDS011;8715;51.010;6.812;2023-08-21T11:51:57;991.30;;;902.83;;
17197;SDS011;8715;51.010;6.812;2023-08-21T11:54:43;990.92;;;902.22;;
17197;SDS011;8715;51.010;6.812;2023-08-21T11:57:34;990.45;;;901.80;;
17197;SDS011;8715;51.010;6.812;2023-08-21T12:00:19;993.17;;;904.50;;
17197;SDS011;8715;51.010;6.812;2023-08-21T12:03:11;990.58;;;901.70;;
17197;SDS011;8715;51.010;6.812;2023-08-21T12:06:04;987.50;;;899.15;;
17197;SDS011;8715;51.010;6.812;2023-08-21T12:08:50;985.60;;;897.90;;
17197;SDS011;8715;51.010;6.812;2023-08-21T12:11:35;986.97;;;898.90;;
17197;SDS011;8715;51.010;6.812;2023-08-21T12:14:23;992.28;;;903.90;;
17197;SDS011;8715;51.010;6.812;2023-08-21T12:17:08;988.83;;;900.00;;
17197;SDS011;8715;51.010;6.812;2023-08-21T12:19:54;987.55;;;899.00;;
17197;SDS011;8715;51.010;6.812;2023-08-21T12:22:39;991.60;;;902.42;;
17197;SDS011;8715;51.010;6.812;2023-08-21T12:25:26;991.95;;;902.30;;
17197;SDS011;8715;51.010;6.812;2023-08-21T12:28:11;992.38;;;902.78;;
17197;SDS011;8715;51.010;6.812;2023-08-21T12:30:58;993.13;;;903.40;;
17197;SDS011;8715;51.010;6.812;2023-08-21T12:33:44;992.10;;;902.47;;
17197;SDS011;8715;51.010;6.812;2023-08-21T12:36:29;991.45;;;901.72;;
17197;SDS011;8715;51.010;6.812;2023-08-21T12:39:14;992.28;;;903.05;;
17197;SDS011;8715;51.010;6.812;2023-08-21T12:42:01;989.80;;;900.50;;
17197;SDS011;8715;51.010;6.812;2023-08-21T12:44:46;990.67;;;901.88;;
17197;SDS011;8715;51.010;6.812;2023-08-21T12:47:33;990.08;;;901.28;;
17197;SDS011;8715;51.010;6.812;2023-08-21T12:50:19;990.58;;;901.38;;
17197;SDS011;8715;51.010;6.812;2023-08-21T12:53:04;992.60;;;903.70;;
17197;SDS011;8715;51.010;6.812;2023-08-21T12:55:49;990.20;;;901.33;;
17197;SDS011;8715;51.010;6.812;2023-08-21T12:58:35;990.30;;;901.58;;
17197;SDS011;8715;51.010;6.812;2023-08-21T13:01:20;990.03;;;900.83;;
17197;SDS011;8715;51.010;6.812;2023-08-21T13:04:06;991.75;;;902.72;;
17197;SDS011;8715;51.010;6.812;2023-08-21T13:06:52;993.38;;;904.45;;
17197;SDS011;8715;51.010;6.812;2023-08-21T13:09:37;990.35;;;901.70;;
17197;SDS011;8715;51.010;6.812;2023-08-21T13:12:22;990.28;;;900.90;;
17197;SDS011;8715;51.010;6.812;2023-08-21T13:15:08;986.03;;;897.47;;
17197;SDS011;8715;51.010;6.812;2023-08-21T13:17:54;991.50;;;902.45;;
17197;SDS011;8715;51.010;6.812;2023-08-21T13:20:41;992.60;;;903.30;;
17197;SDS011;8715;51.010;6.812;2023-08-21T13:23:28;989.88;;;900.78;;
17197;SDS011;8715;51.010;6.812;2023-08-21T13:26:13;992.25;;;902.95;;
17197;SDS011;8715;51.010;6.812;2023-08-21T13:28:58;992.90;;;903.63;;
17197;SDS011;8715;51.010;6.812;2023-08-21T13:31:44;986.75;;;897.75;;
17197;SDS011;8715;51.010;6.812;2023-08-21T13:34:29;993.05;;;903.75;;
17197;SDS011;8715;51.010;6.812;2023-08-21T13:37:16;992.63;;;903.63;;
17197;SDS011;8715;51.010;6.812;2023-08-21T13:40:02;990.30;;;901.10;;
17197;SDS011;8715;51.010;6.812;2023-08-21T13:42:53;992.60;;;903.75;;
17197;SDS011;8715;51.010;6.812;2023-08-21T13:45:38;986.42;;;897.78;;
17197;SDS011;8715;51.010;6.812;2023-08-21T13:48:24;989.38;;;900.75;;
17197;SDS011;8715;51.010;6.812;2023-08-21T13:51:10;991.80;;;902.53;;
17197;SDS011;8715;51.010;6.812;2023-08-21T13:53:56;993.35;;;904.05;;
17197;SDS011;8715;51.010;6.812;2023-08-21T13:56:42;989.13;;;900.10;;
17197;SDS011;8715;51.010;6.812;2023-08-21T13:59:27;989.05;;;900.35;;
17197;SDS011;8715;51.010;6.812;2023-08-21T14:02:12;988.45;;;899.65;;
17197;SDS011;8715;51.010;6.812;2023-08-21T14:04:58;986.70;;;898.17;;
17197;SDS011;8715;51.010;6.812;2023-08-21T14:07:43;990.53;;;901.90;;
17197;SDS011;8715;51.010;6.812;2023-08-21T14:10:30;988.65;;;899.95;;
17197;SDS011;8715;51.010;6.812;2023-08-21T14:13:16;988.53;;;900.05;;
17197;SDS011;8715;51.010;6.812;2023-08-21T14:16:01;990.45;;;901.47;;
17197;SDS011;8715;51.010;6.812;2023-08-21T14:18:47;988.47;;;900.13;;
17197;SDS011;8715;51.010;6.812;2023-08-21T14:21:33;990.05;;;901.35;;
17197;SDS011;8715;51.010;6.812;2023-08-21T14:24:18;991.90;;;903.25;;
17197;SDS011;8715;51.010;6.812;2023-08-21T14:27:05;988.13;;;899.75;;
17197;SDS011;8715;51.010;6.812;2023-08-21T14:29:50;988.42;;;900.17;;
17197;SDS011;8715;51.010;6.812;2023-08-21T14:32:36;987.38;;;898.90;;
17197;SDS011;8715;51.010;6.812;2023-08-21T14:35:22;988.53;;;900.17;;
17197;SDS011;8715;51.010;6.812;2023-08-21T14:38:07;988.65;;;900.03;;
17197;SDS011;8715;51.010;6.812;2023-08-21T14:40:52;990.97;;;902.13;;
17197;SDS011;8715;51.010;6.812;2023-08-21T14:43:39;992.15;;;902.75;;
17197;SDS011;8715;51.010;6.812;2023-08-21T14:46:24;991.80;;;902.47;;
17197;SDS011;8715;51.010;6.812;2023-08-21T14:49:10;993.13;;;903.55;;
17197;SDS011;8715;51.010;6.812;2023-08-21T14:51:57;990.55;;;901.38;;
17197;SDS011;8715;51.010;6.812;2023-08-21T14:54:42;992.55;;;903.45;;
17197;SDS011;8715;51.010;6.812;2023-08-21T14:57:27;990.97;;;902.42;;
17197;SDS011;8715;51.010;6.812;2023-08-21T15:00:15;987.15;;;898.78;;
17197;SDS011;8715;51.010;6.812;2023-08-21T15:03:01;989.30;;;900.83;;
17197;SDS011;8715;51.010;6.812;2023-08-21T15:05:47;988.15;;;899.85;;
17197;SDS011;8715;51.010;6.812;2023-08-21T15:08:32;985.53;;;897.47;;
17197;SDS011;8715;51.010;6.812;2023-08-21T15:11:17;989.67;;;901.28;;
17197;SDS011;8715;51.010;6.812;2023-08-21T15:14:03;990.13;;;901.50;;
17197;SDS011;8715;51.010;6.812;2023-08-21T15:16:49;990.65;;;902.33;;
17197;SDS011;8715;51.010;6.812;2023-08-21T15:19:35;988.10;;;899.75;;
17197;SDS011;8715;51.010;6.812;2023-08-21T15:22:20;991.25;;;902.78;;
17197;SDS011;8715;51.010;6.812;2023-08-21T15:25:06;990.78;;;902.22;;
17197;SDS011;8715;51.010;6.812;2023-08-21T15:27:51;988.67;;;900.35;;
17197;SDS011;8715;51.010;6.812;2023-08-21T15:30:37;988.95;;;900.88;;
17197;SDS011;8715;51.010;6.812;2023-08-21T15:33:23;986.63;;;898.72;;
17197;SDS011;8715;51.010;6.812;2023-08-21T15:36:09;988.28;;;900.05;;
17197;SDS011;8715;51.010;6.812;2023-08-21T15:38:54;987.08;;;898.70;;
17197;SDS011;8715;51.010;6.812;2023-08-21T15:41:39;987.50;;;899.60;;
17197;SDS011;8715;51.010;6.812;2023-08-21T15:44:25;987.13;;;899.30;;
17197;SDS011;8715;51.010;6.812;2023-08-21T15:47:11;985.97;;;898.42;;
17197;SDS011;8715;51.010;6.812;2023-08-21T15:49:57;986.60;;;898.53;;
17197;SDS011;8715;51.010;6.812;2023-08-21T15:52:43;987.85;;;899.88;;
17197;SDS011;8715;51.010;6.812;2023-08-21T15:55:28;990.53;;;902.33;;
17197;SDS011;8715;51.010;6.812;2023-08-21T15:58:13;991.10;;;902.13;;
17197;SDS011;8715;51.010;6.812;2023-08-21T16:00:59;988.08;;;900.17;;
17197;SDS011;8715;51.010;6.812;2023-08-21T16:03:45;984.85;;;897.10;;